createdAt,value
2022-10-16T00:01:23.274Z,13.59
2022-10-16T00:03:50.269Z,14.05
2022-10-16T00:06:18.958Z,14.09
2022-10-16T00:08:46.244Z,14.12
2022-10-16T00:11:26.486Z,13.98
2022-10-16T00:13:57.938Z,14.08
2022-10-16T00:16:26.601Z,13.67
2022-10-16T00:18:53.425Z,13.96
2022-10-16T00:21:24.741Z,14.07
2022-10-16T00:24:00.703Z,13.61
2022-10-16T00:26:28.841Z,13.97
2022-10-16T00:28:55.588Z,13.16
2022-10-16T00:31:24.132Z,13.77
2022-10-16T00:33:51.738Z,14.01
2022-10-16T00:36:21.039Z,13.98
2022-10-16T00:38:47.883Z,13.91
2022-10-16T00:41:16.683Z,13.98
2022-10-16T00:43:47.813Z,13.93
2022-10-16T00:46:22.327Z,13.86
2022-10-16T00:49:16.653Z,13.86
2022-10-16T00:51:47.392Z,13.88
2022-10-16T00:54:30.510Z,13.87
2022-10-16T00:57:00.838Z,13.93
2022-10-16T00:59:31.350Z,13.93
2022-10-16T01:01:59.408Z,13.78
2022-10-16T01:04:27.294Z,13.88
2022-10-16T01:07:04.702Z,13.79
2022-10-16T01:09:56.322Z,13.91
2022-10-16T01:12:38.821Z,13.92
2022-10-16T01:15:09.465Z,13.88
2022-10-16T01:17:43.630Z,13.79
2022-10-16T01:20:33.009Z,13.91
2022-10-16T01:23:37.778Z,13.86
2022-10-16T01:26:20.312Z,13.66
2022-10-16T01:28:52.740Z,13.79
2022-10-16T01:31:23.416Z,13.46
2022-10-16T01:34:17.497Z,13.71
2022-10-16T01:36:54.213Z,13.56
2022-10-16T01:39:25.998Z,13.61
2022-10-16T01:42:00.001Z,13.36
2022-10-16T01:44:32.729Z,13.42
2022-10-16T01:47:01.078Z,13.40
2022-10-16T01:49:33.507Z,13.38
2022-10-16T01:52:06.352Z,13.06
2022-10-16T01:54:35.915Z,13.40
2022-10-16T01:57:04.933Z,12.99
2022-10-16T01:59:35.715Z,13.46
2022-10-16T02:02:09.116Z,13.60
2022-10-16T02:04:44.916Z,13.55
2022-10-16T02:07:12.434Z,13.40
2022-10-16T02:09:39.844Z,13.55
2022-10-16T02:12:13.149Z,13.70
2022-10-16T02:14:40.654Z,13.69
2022-10-16T02:17:16.516Z,13.60
2022-10-16T02:19:44.642Z,13.58
2022-10-16T02:22:37.160Z,13.28
2022-10-16T02:25:09.364Z,13.66
2022-10-16T02:27:43.069Z,13.54
2022-10-16T02:30:20.387Z,13.20
2022-10-16T02:32:49.792Z,13.53
2022-10-16T02:35:19.198Z,13.75
2022-10-16T02:37:47.390Z,13.48
2022-10-16T02:40:18.302Z,13.33
2022-10-16T02:42:54.267Z,13.74
2022-10-16T02:45:22.033Z,13.77
2022-10-16T02:47:49.833Z,13.74
2022-10-16T02:50:17.919Z,13.88
2022-10-16T02:52:44.396Z,13.48
2022-10-16T02:55:11.950Z,13.66
2022-10-16T02:57:39.513Z,13.36
2022-10-16T03:00:10.735Z,13.46
2022-10-16T03:02:37.295Z,13.67
2022-10-16T03:05:04.425Z,13.52
2022-10-16T03:07:31.010Z,13.54
2022-10-16T03:09:57.806Z,13.69
2022-10-16T03:12:24.272Z,12.91
2022-10-16T03:14:50.767Z,13.46
2022-10-16T03:17:18.120Z,13.54
2022-10-16T03:19:45.132Z,13.50
2022-10-16T03:22:12.278Z,13.64
2022-10-16T03:24:39.101Z,13.50
2022-10-16T03:27:05.604Z,13.75
2022-10-16T03:29:33.389Z,13.55
2022-10-16T03:32:00.645Z,13.78
2022-10-16T03:34:27.687Z,13.34
2022-10-16T03:36:54.572Z,13.38
2022-10-16T03:39:21.066Z,13.79
2022-10-16T03:41:47.708Z,13.54
2022-10-16T03:44:14.462Z,13.83
2022-10-16T03:46:42.289Z,13.59
2022-10-16T03:49:09.947Z,13.39
2022-10-16T03:51:36.837Z,13.81
2022-10-16T03:54:03.621Z,13.74
2022-10-16T03:56:30.263Z,13.59
2022-10-16T03:58:56.723Z,13.36
2022-10-16T04:01:23.286Z,13.66
2022-10-16T04:03:50.089Z,13.58
2022-10-16T04:06:16.780Z,13.21
2022-10-16T04:08:44.671Z,13.47
2022-10-16T04:11:11.455Z,13.43
2022-10-16T04:13:38.324Z,12.68
2022-10-16T04:16:04.993Z,12.54
2022-10-16T04:18:33.130Z,13.24
2022-10-16T04:21:05.159Z,13.45
2022-10-16T04:23:31.948Z,12.65
2022-10-16T04:26:00.456Z,13.04
2022-10-16T04:28:27.850Z,13.25
2022-10-16T04:30:54.830Z,13.14
2022-10-16T04:33:21.365Z,13.41
2022-10-16T04:35:48.561Z,13.23
2022-10-16T04:38:16.106Z,13.29
2022-10-16T04:40:43.938Z,13.26
2022-10-16T04:43:10.671Z,13.31
2022-10-16T04:45:37.215Z,13.33
2022-10-16T04:48:04.261Z,13.22
2022-10-16T04:50:30.808Z,13.26
2022-10-16T04:53:08.046Z,13.04
2022-10-16T04:55:34.614Z,13.07
2022-10-16T04:58:01.237Z,13.13
2022-10-16T05:00:28.174Z,12.97
2022-10-16T05:02:55.827Z,13.06
2022-10-16T05:05:22.667Z,13.13
2022-10-16T05:07:50.582Z,13.10
2022-10-16T05:10:17.386Z,12.80
2022-10-16T05:12:43.909Z,12.84
2022-10-16T05:15:10.998Z,13.12
2022-10-16T05:17:42.422Z,12.95
2022-10-16T05:20:12.159Z,13.11
2022-10-16T05:22:39.522Z,13.17
2022-10-16T05:25:07.545Z,13.00
2022-10-16T05:27:34.241Z,12.58
2022-10-16T05:30:01.027Z,13.08
2022-10-16T05:32:29.369Z,12.93
2022-10-16T05:34:56.148Z,13.04
2022-10-16T05:37:22.819Z,12.34
2022-10-16T05:39:49.690Z,12.99
2022-10-16T05:42:16.227Z,12.97
2022-10-16T05:44:43.022Z,12.99
2022-10-16T05:47:11.899Z,13.06
2022-10-16T05:49:41.264Z,12.89
2022-10-16T05:52:11.031Z,13.15
2022-10-16T05:54:37.838Z,12.17
2022-10-16T05:57:06.639Z,13.16
2022-10-16T05:59:33.688Z,13.01
2022-10-16T06:02:01.438Z,13.15
2022-10-16T06:04:27.930Z,13.11
2022-10-16T06:07:01.493Z,13.14
2022-10-16T06:09:28.194Z,12.77
2022-10-16T06:11:54.694Z,13.07
2022-10-16T06:14:21.325Z,12.82
2022-10-16T06:16:48.084Z,13.00
2022-10-16T06:19:14.722Z,12.95
2022-10-16T06:21:41.580Z,12.35
2022-10-16T06:24:08.334Z,13.08
2022-10-16T06:26:35.042Z,13.07
2022-10-16T06:29:02.083Z,12.88
2022-10-16T06:31:32.007Z,13.08
2022-10-16T06:33:59.316Z,12.97
2022-10-16T06:36:27.222Z,12.76
2022-10-16T06:38:54.176Z,13.08
2022-10-16T06:41:22.978Z,13.04
2022-10-16T06:43:49.993Z,13.11
2022-10-16T06:46:20.073Z,13.20
2022-10-16T06:48:46.960Z,13.26
2022-10-16T06:51:16.600Z,13.31
2022-10-16T06:54:03.484Z,13.31
2022-10-16T06:56:32.272Z,13.34
2022-10-16T06:59:00.570Z,13.23
2022-10-16T07:01:27.564Z,13.36
2022-10-16T07:03:56.172Z,12.83
2022-10-16T07:06:24.938Z,13.19
2022-10-16T07:08:52.240Z,13.46
2022-10-16T07:11:23.362Z,13.22
2022-10-16T07:13:56.170Z,12.85
2022-10-16T07:16:26.005Z,13.58
2022-10-16T07:18:59.300Z,13.29
2022-10-16T07:21:28.289Z,13.57
2022-10-16T07:23:57.323Z,13.55
2022-10-16T07:26:25.379Z,13.71
2022-10-16T07:28:52.278Z,13.72
2022-10-16T07:31:21.223Z,13.74
2022-10-16T07:33:49.237Z,13.63
2022-10-16T07:36:16.934Z,13.36
2022-10-16T07:38:44.018Z,13.84
2022-10-16T07:41:16.280Z,13.84
2022-10-16T07:43:50.132Z,13.60
2022-10-16T07:46:19.048Z,13.86
2022-10-16T07:48:48.230Z,13.76
2022-10-16T07:51:17.160Z,13.86
2022-10-16T07:53:43.873Z,13.11
2022-10-16T07:56:10.950Z,13.15
2022-10-16T07:58:40.488Z,13.50
2022-10-16T08:01:09.964Z,13.71
2022-10-16T08:03:37.390Z,13.60
2022-10-16T08:06:05.458Z,13.50
2022-10-16T08:08:32.104Z,13.63
2022-10-16T08:10:58.681Z,13.55
2022-10-16T08:13:25.598Z,13.28
2022-10-16T08:15:52.201Z,13.55
2022-10-16T08:18:19.539Z,13.60
2022-10-16T08:20:46.182Z,13.82
2022-10-16T08:23:14.660Z,13.78
2022-10-16T08:25:42.297Z,14.03
2022-10-16T08:28:11.709Z,14.07
2022-10-16T08:30:38.557Z,13.97
2022-10-16T08:33:05.755Z,14.06
2022-10-16T08:35:32.265Z,14.16
2022-10-16T08:37:58.930Z,14.25
2022-10-16T08:40:33.392Z,14.53
2022-10-16T08:43:13.096Z,14.63
2022-10-16T08:46:03.202Z,14.73
2022-10-16T08:48:40.010Z,14.63
2022-10-16T08:51:09.044Z,14.69
2022-10-16T08:53:50.045Z,14.85
2022-10-16T08:56:19.542Z,14.87
2022-10-16T08:58:48.824Z,15.09
2022-10-16T09:01:20.314Z,15.04
2022-10-16T09:04:06.550Z,15.13
2022-10-16T09:07:11.527Z,15.16
2022-10-16T09:09:50.738Z,15.34
2022-10-16T09:12:25.528Z,15.44
2022-10-16T09:15:20.505Z,15.54
2022-10-16T09:18:21.933Z,15.64
2022-10-16T09:20:58.975Z,15.96
2022-10-16T09:23:31.190Z,16.21
2022-10-16T09:25:59.832Z,16.00
2022-10-16T09:28:27.393Z,16.51
2022-10-16T09:30:55.242Z,16.44
2022-10-16T09:33:27.153Z,16.80
2022-10-16T09:35:56.910Z,16.82
2022-10-16T09:38:30.865Z,16.88
2022-10-16T09:41:03.046Z,16.88
2022-10-16T09:43:43.209Z,16.98
2022-10-16T09:46:42.421Z,17.15
2022-10-16T09:49:27.989Z,17.24
2022-10-16T09:52:11.104Z,17.12
2022-10-16T09:54:38.578Z,17.14
2022-10-16T09:57:08.454Z,16.89
2022-10-16T09:59:35.035Z,17.16
2022-10-16T10:02:16.038Z,17.25
2022-10-16T10:04:49.126Z,16.53
2022-10-16T10:07:22.352Z,17.14
2022-10-16T10:09:49.329Z,17.06
2022-10-16T10:12:21.773Z,17.76
2022-10-16T10:14:56.567Z,17.82
2022-10-16T10:17:28.365Z,17.94
2022-10-16T10:19:57.865Z,17.48
2022-10-16T10:22:32.281Z,18.18
2022-10-16T10:25:25.425Z,18.37
2022-10-16T10:28:04.941Z,18.23
2022-10-16T10:30:34.818Z,18.11
2022-10-16T10:33:22.556Z,17.87
2022-10-16T10:36:08.149Z,18.16
2022-10-16T10:38:54.277Z,18.29
2022-10-16T10:41:31.724Z,18.30
2022-10-16T10:44:19.842Z,18.51
2022-10-16T10:46:52.658Z,18.41
2022-10-16T10:49:41.732Z,18.55
2022-10-16T10:52:36.628Z,18.55
2022-10-16T10:55:03.253Z,18.61
2022-10-16T11:00:18.386Z,18.10
2022-10-16T11:03:20.189Z,18.40
2022-10-16T11:06:09.512Z,18.50
2022-10-16T11:08:44.721Z,18.63
2022-10-16T11:11:27.228Z,18.55
2022-10-16T11:14:00.980Z,18.53
2022-10-16T11:16:36.105Z,18.47
2022-10-16T11:19:21.543Z,18.47
2022-10-16T11:22:02.789Z,18.26
2022-10-16T11:24:41.911Z,18.55
2022-10-16T11:27:14.678Z,18.34
2022-10-16T11:30:00.864Z,17.93
2022-10-16T11:32:46.335Z,18.22
2022-10-16T11:35:23.346Z,18.03
2022-10-16T11:37:51.921Z,18.27
2022-10-16T11:40:28.879Z,18.43
2022-10-16T11:43:03.187Z,18.42
2022-10-16T11:45:45.493Z,18.46
2022-10-16T11:48:27.294Z,18.45
2022-10-16T11:50:57.156Z,18.26
2022-10-16T11:53:29.776Z,18.37
2022-10-16T11:55:56.696Z,18.09
2022-10-16T11:58:40.245Z,18.26
2022-10-16T12:01:09.943Z,18.48
2022-10-16T12:03:43.461Z,18.44
2022-10-16T12:06:53.417Z,18.44
2022-10-16T12:09:30.521Z,18.47
2022-10-16T12:11:57.771Z,18.39
2022-10-16T12:14:36.939Z,18.62
2022-10-16T12:17:35.200Z,18.66
2022-10-16T12:20:12.957Z,18.82
2022-10-16T12:23:04.609Z,18.87
2022-10-16T12:25:49.350Z,18.66
2022-10-16T12:28:16.461Z,19.04
2022-10-16T12:30:53.291Z,19.08
2022-10-16T12:33:31.015Z,19.09
2022-10-16T12:36:00.772Z,18.95
2022-10-16T12:38:29.257Z,19.13
2022-10-16T12:41:02.981Z,18.96
2022-10-16T12:43:39.078Z,18.79
2022-10-16T12:46:11.797Z,19.05
2022-10-16T12:48:48.570Z,18.93
2022-10-16T12:51:26.885Z,18.96
2022-10-16T12:54:14.950Z,19.03
2022-10-16T12:57:04.295Z,18.88
2022-10-16T12:59:39.219Z,18.93
2022-10-16T13:02:22.419Z,18.64
2022-10-16T13:05:07.122Z,18.78
2022-10-16T13:07:51.156Z,18.21
2022-10-16T13:10:36.605Z,18.74
2022-10-16T13:13:24.973Z,18.32
2022-10-16T13:16:04.182Z,18.72
2022-10-16T13:18:44.736Z,18.77
2022-10-16T13:21:36.222Z,18.69
2022-10-16T13:24:28.578Z,18.59
2022-10-16T13:27:16.741Z,18.58
2022-10-16T13:29:43.522Z,18.33
2022-10-16T13:32:15.406Z,18.43
2022-10-16T13:34:50.006Z,18.17
2022-10-16T13:37:19.697Z,18.42
2022-10-16T13:39:47.809Z,18.00
2022-10-16T13:42:29.972Z,18.18
2022-10-16T13:44:57.462Z,18.12
2022-10-16T13:47:27.252Z,18.38
2022-10-16T13:50:20.623Z,18.35
2022-10-16T13:52:48.502Z,18.29
2022-10-16T13:55:17.852Z,18.16
2022-10-16T13:57:46.106Z,18.15
2022-10-16T14:00:20.179Z,18.31
2022-10-16T14:02:52.870Z,18.32
2022-10-16T14:05:19.725Z,18.04
2022-10-16T14:07:52.816Z,18.25
2022-10-16T14:10:32.233Z,18.26
2022-10-16T14:13:03.174Z,17.80
2022-10-16T14:15:32.337Z,18.29
2022-10-16T14:18:00.027Z,18.19
2022-10-16T14:20:32.980Z,18.27
2022-10-16T14:23:22.799Z,17.75
2022-10-16T14:25:49.661Z,17.68
2022-10-16T14:28:25.151Z,17.80
2022-10-16T14:30:58.470Z,17.72
2022-10-16T14:33:34.474Z,17.72
2022-10-16T14:36:03.758Z,18.17
2022-10-16T14:38:30.950Z,17.87
2022-10-16T14:40:59.813Z,18.14
2022-10-16T14:43:42.017Z,18.07
2022-10-16T14:46:16.763Z,18.23
2022-10-16T14:48:46.028Z,17.79
2022-10-16T14:51:19.780Z,18.19
2022-10-16T14:53:46.889Z,18.05
2022-10-16T14:56:22.356Z,18.16
2022-10-16T14:58:51.087Z,18.05
2022-10-16T15:01:19.116Z,18.14
2022-10-16T15:03:46.492Z,18.17
2022-10-16T15:06:14.818Z,18.12
2022-10-16T15:08:42.164Z,18.05
2022-10-16T15:11:20.507Z,17.99
2022-10-16T15:13:47.471Z,17.65
2022-10-16T15:16:18.154Z,17.34
2022-10-16T15:18:45.232Z,17.70
2022-10-16T15:21:30.956Z,17.78
2022-10-16T15:23:59.571Z,17.73
2022-10-16T15:26:28.477Z,17.78
2022-10-16T15:28:55.620Z,17.91
2022-10-16T15:31:26.624Z,17.70
2022-10-16T15:33:57.408Z,17.75
2022-10-16T15:36:29.536Z,17.80
2022-10-16T15:38:57.463Z,17.79
2022-10-16T15:41:24.313Z,17.50
2022-10-16T15:43:51.619Z,16.56
2022-10-16T15:46:23.872Z,16.58
2022-10-16T15:48:52.047Z,16.32
2022-10-16T15:51:19.646Z,15.99
2022-10-16T15:53:47.625Z,16.03
2022-10-16T15:56:15.598Z,17.51
2022-10-16T15:58:50.179Z,17.44
2022-10-16T16:01:17.550Z,17.26
2022-10-16T16:03:47.192Z,17.33
2022-10-16T16:06:16.173Z,17.39
2022-10-16T16:08:42.927Z,17.28
2022-10-16T16:11:14.909Z,17.21
2022-10-16T16:13:42.090Z,17.05
2022-10-16T16:16:11.508Z,17.28
2022-10-16T16:18:39.447Z,17.22
2022-10-16T16:21:06.527Z,16.83
2022-10-16T16:23:34.511Z,16.43
2022-10-16T16:26:11.030Z,16.32
2022-10-16T16:28:40.140Z,16.65
2022-10-16T16:31:07.459Z,16.66
2022-10-16T16:33:35.373Z,16.70
2022-10-16T16:36:12.947Z,16.66
2022-10-16T16:38:42.488Z,16.62
2022-10-16T16:41:18.120Z,16.67
2022-10-16T16:43:45.450Z,16.51
2022-10-16T16:46:12.664Z,16.40
2022-10-16T16:48:39.740Z,16.05
2022-10-16T16:51:08.180Z,16.04
2022-10-16T16:53:46.390Z,15.67
2022-10-16T16:56:13.947Z,15.99
2022-10-16T16:58:40.895Z,15.77
2022-10-16T17:01:20.683Z,15.78
2022-10-16T17:03:52.963Z,15.39
2022-10-16T17:06:21.863Z,15.72
2022-10-16T17:08:49.668Z,15.65
2022-10-16T17:11:25.767Z,15.36
2022-10-16T17:13:56.963Z,15.41
2022-10-16T17:16:27.325Z,15.44
2022-10-16T17:18:56.706Z,15.43
2022-10-16T17:21:24.083Z,15.37
2022-10-16T17:23:53.321Z,15.48
2022-10-16T17:26:24.534Z,15.34
2022-10-16T17:28:56.302Z,14.87
2022-10-16T17:31:29.113Z,15.27
2022-10-16T17:33:56.212Z,15.35
2022-10-16T17:36:23.730Z,15.01
2022-10-16T17:38:52.871Z,15.29
2022-10-16T17:41:24.516Z,15.32
2022-10-16T17:43:52.080Z,15.26
2022-10-16T17:46:21.609Z,15.22
2022-10-16T17:48:51.249Z,15.14
2022-10-16T17:51:22.732Z,14.70
2022-10-16T17:53:53.075Z,15.11
2022-10-16T17:56:22.130Z,15.02
2022-10-16T17:58:54.111Z,15.06
2022-10-16T18:01:26.850Z,14.91
2022-10-16T18:03:59.890Z,13.99
2022-10-16T18:06:28.168Z,13.50
2022-10-16T18:08:58.034Z,13.75
2022-10-16T18:11:26.692Z,13.44
2022-10-16T18:13:57.021Z,14.83
2022-10-16T18:16:24.015Z,14.99
2022-10-16T18:18:50.980Z,15.00
2022-10-16T18:21:19.886Z,15.01
2022-10-16T18:23:52.832Z,15.03
2022-10-16T18:26:22.894Z,15.04
2022-10-16T18:28:52.747Z,15.09
2022-10-16T18:31:23.723Z,14.86
2022-10-16T18:33:51.550Z,14.82
2022-10-16T18:36:29.810Z,14.90
2022-10-16T18:38:57.533Z,14.81
2022-10-16T18:41:24.892Z,14.59
2022-10-16T18:43:51.736Z,14.57
2022-10-16T18:46:21.321Z,14.97
2022-10-16T18:48:49.589Z,14.89
2022-10-16T18:51:25.111Z,14.79
2022-10-16T18:53:54.209Z,14.81
2022-10-16T18:56:23.538Z,14.89
2022-10-16T18:58:51.644Z,14.71
2022-10-16T19:01:28.813Z,14.66
2022-10-16T19:03:58.716Z,14.56
2022-10-16T19:06:26.085Z,14.55
2022-10-16T19:08:54.358Z,14.05
2022-10-16T19:11:23.845Z,14.17
2022-10-16T19:13:51.499Z,14.37
2022-10-16T19:16:23.789Z,14.39
2022-10-16T19:18:54.411Z,14.24
2022-10-16T19:21:21.742Z,14.33
2022-10-16T19:23:58.881Z,14.23
2022-10-16T19:26:26.941Z,14.12
2022-10-16T19:28:55.626Z,14.15
2022-10-16T19:31:25.226Z,13.77
2022-10-16T19:33:54.544Z,13.89
2022-10-16T19:36:24.485Z,14.09
2022-10-16T19:38:56.390Z,13.92
2022-10-16T19:41:26.455Z,14.07
2022-10-16T19:43:54.603Z,14.00
2022-10-16T19:46:25.782Z,14.05
2022-10-16T19:48:59.184Z,13.96
2022-10-16T19:51:26.857Z,14.00
2022-10-16T19:53:56.852Z,13.82
2022-10-16T19:56:25.145Z,13.95
2022-10-16T19:58:53.466Z,13.94
2022-10-16T20:01:20.764Z,13.74
2022-10-16T20:03:50.646Z,13.84
2022-10-16T20:06:19.831Z,13.43
2022-10-16T20:08:48.337Z,13.60
2022-10-16T20:11:18.897Z,13.60
2022-10-16T20:13:47.989Z,13.56
2022-10-16T20:16:18.017Z,13.26
2022-10-16T20:18:46.950Z,13.39
2022-10-16T20:21:20.884Z,12.99
2022-10-16T20:23:49.356Z,13.35
2022-10-16T20:26:17.029Z,13.09
2022-10-16T20:28:43.880Z,13.17
2022-10-16T20:31:18.278Z,13.13
2022-10-16T20:33:45.511Z,13.35
2022-10-16T20:36:14.490Z,13.36
2022-10-16T20:38:42.458Z,13.01
2022-10-16T20:41:10.923Z,13.50
2022-10-16T20:43:41.328Z,13.10
2022-10-16T20:46:13.756Z,13.34
2022-10-16T20:48:44.204Z,13.26
2022-10-16T20:51:16.301Z,13.21
2022-10-16T20:53:44.339Z,12.97
2022-10-16T20:56:12.534Z,12.86
2022-10-16T20:58:40.834Z,12.62
2022-10-16T21:01:09.625Z,12.95
2022-10-16T21:03:37.822Z,13.05
2022-10-16T21:06:06.924Z,13.06
2022-10-16T21:08:38.422Z,12.58
2022-10-16T21:11:17.511Z,12.95
2022-10-16T21:13:44.486Z,12.92
2022-10-16T21:16:12.991Z,13.09
2022-10-16T21:18:44.232Z,12.49
2022-10-16T21:21:19.579Z,13.14
2022-10-16T21:23:47.685Z,12.63
2022-10-16T21:26:14.361Z,12.75
2022-10-16T21:28:41.436Z,12.76
2022-10-16T21:31:15.325Z,12.96
2022-10-16T21:33:42.374Z,13.04
2022-10-16T21:36:32.989Z,12.95
2022-10-16T21:39:05.822Z,13.10
2022-10-16T21:41:36.497Z,13.02
2022-10-16T21:44:04.228Z,13.20
2022-10-16T21:46:34.101Z,13.03
2022-10-16T21:49:05.384Z,13.25
2022-10-16T21:51:35.553Z,13.20
2022-10-16T21:54:03.734Z,13.23
2022-10-16T21:56:30.627Z,13.13
2022-10-16T21:58:57.474Z,13.00
2022-10-16T22:01:26.149Z,12.66
2022-10-16T22:03:53.805Z,12.81
2022-10-16T22:08:59.869Z,12.61
2022-10-16T22:11:36.726Z,12.89
2022-10-16T22:14:06.352Z,12.68
2022-10-16T22:16:34.351Z,12.38
2022-10-16T22:19:03.390Z,12.63
2022-10-16T22:21:32.279Z,12.67
2022-10-16T22:24:00.059Z,12.51
2022-10-16T22:26:27.354Z,12.60
2022-10-16T22:28:55.310Z,12.44
2022-10-16T22:31:23.969Z,12.44
2022-10-16T22:33:59.086Z,12.63
2022-10-16T22:36:27.323Z,12.53
2022-10-16T22:38:55.621Z,11.94
2022-10-16T22:41:25.073Z,12.22
2022-10-16T22:43:53.166Z,11.77
2022-10-16T22:46:25.950Z,12.26
2022-10-16T22:48:55.732Z,12.34
2022-10-16T22:51:22.706Z,12.08
2022-10-16T22:53:50.648Z,12.36
2022-10-16T22:56:19.489Z,12.11
2022-10-16T22:58:46.975Z,12.31
2022-10-16T23:01:24.871Z,12.36
2022-10-16T23:03:51.613Z,12.22
2022-10-16T23:06:18.169Z,11.75
2022-10-16T23:08:45.028Z,11.54
2022-10-16T23:11:13.299Z,12.35
2022-10-16T23:13:45.360Z,12.33
2022-10-16T23:16:14.636Z,12.37
2022-10-16T23:18:42.848Z,12.35
2022-10-16T23:21:12.583Z,12.27
2022-10-16T23:23:40.450Z,12.17
2022-10-16T23:26:16.854Z,12.09
2022-10-16T23:28:44.224Z,11.85
2022-10-16T23:31:13.006Z,11.68
2022-10-16T23:33:40.080Z,11.87
2022-10-16T23:36:09.679Z,12.01
2022-10-16T23:38:36.581Z,12.01
2022-10-16T23:41:03.912Z,11.99
2022-10-16T23:43:30.777Z,11.98
2022-10-16T23:45:57.980Z,11.80
2022-10-16T23:48:25.741Z,11.70
2022-10-16T23:50:54.694Z,11.35
2022-10-16T23:53:22.349Z,12.15
2022-10-16T23:55:53.275Z,11.97
2022-10-16T23:58:21.536Z,11.69
